sensor_id;sensor_type;location;lat;lon;timestamp;P1;durP1;ratioP1;P2;durP2;ratioP2
2035;SDS011;23642;42.658;23.350;2022-10-19T00:47:41;98.30;;;91.70;;
2035;SDS011;23642;42.658;23.350;2022-10-19T00:50:10;99.60;;;92.80;;
2035;SDS011;23642;42.658;23.350;2022-10-19T00:52:41;97.60;;;91.10;;
2035;SDS011;23642;42.658;23.350;2022-10-19T00:55:12;95.00;;;88.50;;
2035;SDS011;23642;42.658;23.350;2022-10-19T00:57:39;96.73;;;89.30;;
2035;SDS011;23642;42.658;23.350;2022-10-19T01:00:07;95.33;;;88.70;;
2035;SDS011;23642;42.658;23.350;2022-10-19T01:02:41;100.50;;;93.67;;
2035;SDS011;23642;42.658;23.350;2022-10-19T01:05:08;96.57;;;90.13;;
2035;SDS011;23642;42.658;23.350;2022-10-19T01:07:36;99.23;;;92.50;;
2035;SDS011;23642;42.658;23.350;2022-10-19T01:10:03;95.03;;;88.53;;
2035;SDS011;23642;42.658;23.350;2022-10-19T01:15:30;96.63;;;90.07;;
2035;SDS011;23642;42.658;23.350;2022-10-19T01:18:07;95.73;;;89.43;;
2035;SDS011;23642;42.658;23.350;2022-10-19T01:21:19;96.27;;;89.60;;
2035;SDS011;23642;42.658;23.350;2022-10-19T01:30:16;94.30;;;88.13;;
2035;SDS011;23642;42.658;23.350;2022-10-19T01:35:48;92.37;;;86.27;;
2035;SDS011;23642;42.658;23.350;2022-10-19T01:38:23;92.50;;;86.20;;
2035;SDS011;23642;42.658;23.350;2022-10-19T01:41:01;90.77;;;84.87;;
2035;SDS011;23642;42.658;23.350;2022-10-19T01:43:39;92.40;;;86.40;;
2035;SDS011;23642;42.658;23.350;2022-10-19T01:46:15;91.53;;;85.43;;
2035;SDS011;23642;42.658;23.350;2022-10-19T01:48:50;91.90;;;85.80;;
2035;SDS011;23642;42.658;23.350;2022-10-19T01:51:25;94.97;;;88.63;;
2035;SDS011;23642;42.658;23.350;2022-10-19T01:53:56;94.00;;;88.00;;
2035;SDS011;23642;42.658;23.350;2022-10-19T01:56:26;94.07;;;87.67;;
2035;SDS011;23642;42.658;23.350;2022-10-19T01:58:56;94.67;;;87.87;;
2035;SDS011;23642;42.658;23.350;2022-10-19T02:01:32;92.40;;;85.90;;
2035;SDS011;23642;42.658;23.350;2022-10-19T02:04:03;94.33;;;87.60;;
2035;SDS011;23642;42.658;23.350;2022-10-19T04:17:19;89.73;;;82.87;;
2035;SDS011;23642;42.658;23.350;2022-10-19T04:44:41;90.67;;;83.90;;
2035;SDS011;23642;42.658;23.350;2022-10-19T04:49:56;90.90;;;84.40;;
2035;SDS011;23642;42.658;23.350;2022-10-19T04:52:36;94.00;;;86.50;;
2035;SDS011;23642;42.658;23.350;2022-10-19T04:55:39;92.47;;;84.93;;
2035;SDS011;23642;42.658;23.350;2022-10-19T04:58:06;92.87;;;85.43;;
2035;SDS011;23642;42.658;23.350;2022-10-19T05:03:52;97.37;;;89.57;;
2035;SDS011;23642;42.658;23.350;2022-10-19T05:06:38;93.57;;;86.30;;
2035;SDS011;23642;42.658;23.350;2022-10-19T05:09:25;92.13;;;85.73;;
2035;SDS011;23642;42.658;23.350;2022-10-19T05:12:10;93.23;;;86.47;;
2035;SDS011;23642;42.658;23.350;2022-10-19T05:14:53;92.00;;;85.20;;
2035;SDS011;23642;42.658;23.350;2022-10-19T05:17:40;96.03;;;88.27;;
2035;SDS011;23642;42.658;23.350;2022-10-19T05:20:10;97.40;;;90.07;;
2035;SDS011;23642;42.658;23.350;2022-10-19T05:23:08;97.17;;;89.97;;
2035;SDS011;23642;42.658;23.350;2022-10-19T05:29:18;94.93;;;87.53;;
2035;SDS011;23642;42.658;23.350;2022-10-19T05:32:17;97.47;;;89.53;;
2035;SDS011;23642;42.658;23.350;2022-10-19T05:35:50;98.90;;;91.30;;
2035;SDS011;23642;42.658;23.350;2022-10-19T05:46:17;97.83;;;90.43;;
2035;SDS011;23642;42.658;23.350;2022-10-19T05:49:14;99.23;;;91.03;;
2035;SDS011;23642;42.658;23.350;2022-10-19T05:58:26;100.30;;;92.73;;
2035;SDS011;23642;42.658;23.350;2022-10-19T06:01:42;100.40;;;92.50;;
2035;SDS011;23642;42.658;23.350;2022-10-19T06:04:42;99.00;;;91.10;;
2035;SDS011;23642;42.658;23.350;2022-10-19T06:07:39;98.30;;;90.97;;
2035;SDS011;23642;42.658;23.350;2022-10-19T06:10:26;103.63;;;95.03;;
2035;SDS011;23642;42.658;23.350;2022-10-19T06:13:17;100.27;;;92.83;;
2035;SDS011;23642;42.658;23.350;2022-10-19T06:15:50;104.90;;;96.60;;
2035;SDS011;23642;42.658;23.350;2022-10-19T06:18:41;101.83;;;93.87;;
2035;SDS011;23642;42.658;23.350;2022-10-19T06:21:16;101.83;;;94.13;;
2035;SDS011;23642;42.658;23.350;2022-10-19T06:25:06;104.50;;;96.70;;
2035;SDS011;23642;42.658;23.350;2022-10-19T06:27:35;104.73;;;96.53;;
2035;SDS011;23642;42.658;23.350;2022-10-19T06:30:23;101.53;;;94.33;;
2035;SDS011;23642;42.658;23.350;2022-10-19T06:32:52;103.70;;;95.43;;
2035;SDS011;23642;42.658;23.350;2022-10-19T06:35:40;105.90;;;98.00;;
2035;SDS011;23642;42.658;23.350;2022-10-19T06:38:09;105.70;;;97.90;;
2035;SDS011;23642;42.658;23.350;2022-10-19T06:40:39;102.90;;;95.40;;
2035;SDS011;23642;42.658;23.350;2022-10-19T06:43:11;104.97;;;97.07;;
2035;SDS011;23642;42.658;23.350;2022-10-19T06:46:16;104.13;;;96.50;;
2035;SDS011;23642;42.658;23.350;2022-10-19T06:48:54;106.20;;;98.10;;
2035;SDS011;23642;42.658;23.350;2022-10-19T06:51:32;107.77;;;99.30;;
2035;SDS011;23642;42.658;23.350;2022-10-19T06:54:03;106.00;;;98.30;;
2035;SDS011;23642;42.658;23.350;2022-10-19T06:56:35;106.50;;;98.00;;
2035;SDS011;23642;42.658;23.350;2022-10-19T06:59:18;106.13;;;97.40;;
2035;SDS011;23642;42.658;23.350;2022-10-19T07:01:45;106.60;;;98.97;;
2035;SDS011;23642;42.658;23.350;2022-10-19T07:04:15;103.03;;;95.30;;
2035;SDS011;23642;42.658;23.350;2022-10-19T07:06:49;103.47;;;96.00;;
2035;SDS011;23642;42.658;23.350;2022-10-19T07:12:38;106.60;;;99.17;;
2035;SDS011;23642;42.658;23.350;2022-10-19T07:15:09;104.30;;;96.70;;
2035;SDS011;23642;42.658;23.350;2022-10-19T07:17:37;106.00;;;98.17;;
2035;SDS011;23642;42.658;23.350;2022-10-19T07:20:09;104.83;;;97.33;;
2035;SDS011;23642;42.658;23.350;2022-10-19T07:22:37;107.13;;;99.63;;
2035;SDS011;23642;42.658;23.350;2022-10-19T07:25:04;105.97;;;98.37;;
2035;SDS011;23642;42.658;23.350;2022-10-19T07:27:31;105.20;;;97.40;;
2035;SDS011;23642;42.658;23.350;2022-10-19T07:30:14;105.83;;;98.23;;
2035;SDS011;23642;42.658;23.350;2022-10-19T07:32:47;105.33;;;98.20;;
2035;SDS011;23642;42.658;23.350;2022-10-19T07:35:14;104.00;;;96.50;;
2035;SDS011;23642;42.658;23.350;2022-10-19T07:38:02;106.20;;;98.13;;
2035;SDS011;23642;42.658;23.350;2022-10-19T07:40:38;104.37;;;97.00;;
2035;SDS011;23642;42.658;23.350;2022-10-19T07:43:14;105.70;;;98.17;;
2035;SDS011;23642;42.658;23.350;2022-10-19T07:45:46;106.67;;;98.33;;
2035;SDS011;23642;42.658;23.350;2022-10-19T07:48:13;106.70;;;98.77;;
2035;SDS011;23642;42.658;23.350;2022-10-19T07:50:46;107.43;;;99.30;;
2035;SDS011;23642;42.658;23.350;2022-10-19T07:53:15;104.97;;;97.47;;
2035;SDS011;23642;42.658;23.350;2022-10-19T07:55:47;109.87;;;101.37;;
2035;SDS011;23642;42.658;23.350;2022-10-19T07:58:30;111.97;;;103.20;;
2035;SDS011;23642;42.658;23.350;2022-10-19T08:01:01;109.60;;;101.50;;
2035;SDS011;23642;42.658;23.350;2022-10-19T08:03:28;106.40;;;98.40;;
2035;SDS011;23642;42.658;23.350;2022-10-19T08:05:58;110.00;;;101.50;;
2035;SDS011;23642;42.658;23.350;2022-10-19T08:08:29;109.97;;;101.87;;
2035;SDS011;23642;42.658;23.350;2022-10-19T08:11:05;110.93;;;102.90;;
2035;SDS011;23642;42.658;23.350;2022-10-19T08:16:56;114.67;;;106.30;;
2035;SDS011;23642;42.658;23.350;2022-10-19T08:19:31;114.10;;;105.20;;
2035;SDS011;23642;42.658;23.350;2022-10-19T08:22:09;110.80;;;103.23;;
2035;SDS011;23642;42.658;23.350;2022-10-19T08:24:46;112.30;;;103.33;;
2035;SDS011;23642;42.658;23.350;2022-10-19T08:27:39;114.73;;;105.73;;
2035;SDS011;23642;42.658;23.350;2022-10-19T08:30:25;111.27;;;103.13;;
2035;SDS011;23642;42.658;23.350;2022-10-19T08:43:29;113.23;;;104.57;;
2035;SDS011;23642;42.658;23.350;2022-10-19T08:46:34;109.00;;;101.27;;
2035;SDS011;23642;42.658;23.350;2022-10-19T08:49:22;111.47;;;103.27;;
2035;SDS011;23642;42.658;23.350;2022-10-19T08:51:55;109.93;;;102.10;;
2035;SDS011;23642;42.658;23.350;2022-10-19T08:54:37;110.63;;;102.57;;
2035;SDS011;23642;42.658;23.350;2022-10-19T08:57:22;109.57;;;101.57;;
2035;SDS011;23642;42.658;23.350;2022-10-19T09:00:02;107.37;;;99.33;;
2035;SDS011;23642;42.658;23.350;2022-10-19T09:02:46;109.57;;;101.00;;
2035;SDS011;23642;42.658;23.350;2022-10-19T09:05:28;104.80;;;97.30;;
2035;SDS011;23642;42.658;23.350;2022-10-19T09:08:03;103.77;;;96.60;;
2035;SDS011;23642;42.658;23.350;2022-10-19T09:10:31;103.10;;;96.13;;
2035;SDS011;23642;42.658;23.350;2022-10-19T09:13:01;101.10;;;94.40;;
2035;SDS011;23642;42.658;23.350;2022-10-19T09:15:45;99.70;;;93.20;;
2035;SDS011;23642;42.658;23.350;2022-10-19T09:18:17;96.53;;;90.10;;
2035;SDS011;23642;42.658;23.350;2022-10-19T09:20:49;101.37;;;94.70;;
2035;SDS011;23642;42.658;23.350;2022-10-19T09:23:33;98.70;;;92.13;;
2035;SDS011;23642;42.658;23.350;2022-10-19T09:26:19;97.40;;;91.03;;
2035;SDS011;23642;42.658;23.350;2022-10-19T09:28:51;99.83;;;92.47;;
2035;SDS011;23642;42.658;23.350;2022-10-19T09:31:32;97.50;;;90.70;;
2035;SDS011;23642;42.658;23.350;2022-10-19T09:34:04;96.17;;;90.00;;
2035;SDS011;23642;42.658;23.350;2022-10-19T09:36:41;97.43;;;91.03;;
2035;SDS011;23642;42.658;23.350;2022-10-19T09:39:22;96.03;;;89.83;;
2035;SDS011;23642;42.658;23.350;2022-10-19T09:41:59;97.27;;;90.67;;
2035;SDS011;23642;42.658;23.350;2022-10-19T09:44:46;99.13;;;92.33;;
2035;SDS011;23642;42.658;23.350;2022-10-19T09:50:07;97.87;;;90.87;;
2035;SDS011;23642;42.658;23.350;2022-10-19T09:52:47;99.23;;;90.77;;
2035;SDS011;23642;42.658;23.350;2022-10-19T09:55:26;95.73;;;89.30;;
2035;SDS011;23642;42.658;23.350;2022-10-19T09:58:00;94.80;;;88.40;;
2035;SDS011;23642;42.658;23.350;2022-10-19T10:00:42;96.83;;;90.53;;
2035;SDS011;23642;42.658;23.350;2022-10-19T10:06:01;96.70;;;90.20;;
2035;SDS011;23642;42.658;23.350;2022-10-19T10:08:32;97.70;;;91.10;;
2035;SDS011;23642;42.658;23.350;2022-10-19T10:11:07;93.50;;;87.50;;
2035;SDS011;23642;42.658;23.350;2022-10-19T10:13:38;96.30;;;89.40;;
2035;SDS011;23642;42.658;23.350;2022-10-19T10:16:14;92.60;;;86.60;;
2035;SDS011;23642;42.658;23.350;2022-10-19T10:18:56;94.40;;;87.90;;
2035;SDS011;23642;42.658;23.350;2022-10-19T10:21:46;92.87;;;86.67;;
2035;SDS011;23642;42.658;23.350;2022-10-19T10:31:16;93.60;;;87.43;;
2035;SDS011;23642;42.658;23.350;2022-10-19T10:45:09;93.23;;;87.33;;
2035;SDS011;23642;42.658;23.350;2022-10-19T10:48:11;93.17;;;87.00;;
2035;SDS011;23642;42.658;23.350;2022-10-19T10:51:06;94.03;;;87.80;;
2035;SDS011;23642;42.658;23.350;2022-10-19T10:53:47;94.73;;;88.47;;
2035;SDS011;23642;42.658;23.350;2022-10-19T10:56:23;94.97;;;88.93;;
2035;SDS011;23642;42.658;23.350;2022-10-19T10:59:11;91.33;;;85.63;;
2035;SDS011;23642;42.658;23.350;2022-10-19T11:01:57;93.53;;;87.43;;
2035;SDS011;23642;42.658;23.350;2022-10-19T11:04:37;92.27;;;86.17;;
2035;SDS011;23642;42.658;23.350;2022-10-19T11:07:22;90.37;;;84.63;;
2035;SDS011;23642;42.658;23.350;2022-10-19T11:10:06;93.53;;;87.40;;
2035;SDS011;23642;42.658;23.350;2022-10-19T11:12:53;90.77;;;85.07;;
2035;SDS011;23642;42.658;23.350;2022-10-19T11:15:28;92.00;;;85.77;;
2035;SDS011;23642;42.658;23.350;2022-10-19T11:18:12;93.30;;;87.30;;
2035;SDS011;23642;42.658;23.350;2022-10-19T11:20:47;93.07;;;87.03;;
2035;SDS011;23642;42.658;23.350;2022-10-19T11:23:38;89.50;;;83.90;;
2035;SDS011;23642;42.658;23.350;2022-10-19T11:27:14;91.60;;;85.60;;
2035;SDS011;23642;42.658;23.350;2022-10-19T11:29:57;92.17;;;86.27;;
2035;SDS011;23642;42.658;23.350;2022-10-19T11:32:50;89.83;;;84.20;;
2035;SDS011;23642;42.658;23.350;2022-10-19T11:35:49;92.77;;;86.70;;
2035;SDS011;23642;42.658;23.350;2022-10-19T11:38:41;92.27;;;86.37;;
2035;SDS011;23642;42.658;23.350;2022-10-19T11:44:31;92.13;;;86.23;;
2035;SDS011;23642;42.658;23.350;2022-10-19T11:47:39;89.25;;;83.55;;
2035;SDS011;23642;42.658;23.350;2022-10-19T11:50:26;91.10;;;85.00;;
2035;SDS011;23642;42.658;23.350;2022-10-19T11:53:11;90.63;;;84.93;;
2035;SDS011;23642;42.658;23.350;2022-10-19T11:55:53;90.60;;;84.03;;
2035;SDS011;23642;42.658;23.350;2022-10-19T11:58:31;89.40;;;83.63;;
2035;SDS011;23642;42.658;23.350;2022-10-19T12:01:15;90.90;;;84.90;;
2035;SDS011;23642;42.658;23.350;2022-10-19T12:04:10;87.87;;;82.27;;
2035;SDS011;23642;42.658;23.350;2022-10-19T12:07:08;91.27;;;84.97;;
2035;SDS011;23642;42.658;23.350;2022-10-19T12:09:57;87.80;;;82.30;;
2035;SDS011;23642;42.658;23.350;2022-10-19T12:12:35;89.23;;;83.30;;
2035;SDS011;23642;42.658;23.350;2022-10-19T12:15:23;87.17;;;81.53;;
2035;SDS011;23642;42.658;23.350;2022-10-19T12:18:03;88.40;;;82.77;;
2035;SDS011;23642;42.658;23.350;2022-10-19T12:20:40;88.33;;;82.73;;
2035;SDS011;23642;42.658;23.350;2022-10-19T12:23:22;88.00;;;82.57;;
2035;SDS011;23642;42.658;23.350;2022-10-19T12:26:09;90.70;;;84.37;;
2035;SDS011;23642;42.658;23.350;2022-10-19T12:29:04;89.20;;;83.60;;
2035;SDS011;23642;42.658;23.350;2022-10-19T12:31:43;87.10;;;81.60;;
2035;SDS011;23642;42.658;23.350;2022-10-19T12:37:46;87.87;;;82.33;;
2035;SDS011;23642;42.658;23.350;2022-10-19T12:40:42;90.47;;;84.57;;
2035;SDS011;23642;42.658;23.350;2022-10-19T12:43:18;88.27;;;82.70;;
2035;SDS011;23642;42.658;23.350;2022-10-19T12:46:09;91.93;;;85.73;;
2035;SDS011;23642;42.658;23.350;2022-10-19T12:52:08;89.93;;;84.00;;
2035;SDS011;23642;42.658;23.350;2022-10-19T12:54:52;86.67;;;81.17;;
2035;SDS011;23642;42.658;23.350;2022-10-19T12:57:45;89.87;;;83.77;;
2035;SDS011;23642;42.658;23.350;2022-10-19T13:04:26;88.17;;;82.33;;
2035;SDS011;23642;42.658;23.350;2022-10-19T13:06:59;89.23;;;83.33;;
2035;SDS011;23642;42.658;23.350;2022-10-19T13:09:40;88.30;;;82.10;;
2035;SDS011;23642;42.658;23.350;2022-10-19T13:12:28;88.33;;;82.50;;
2035;SDS011;23642;42.658;23.350;2022-10-19T13:34:20;85.73;;;80.30;;
2035;SDS011;23642;42.658;23.350;2022-10-19T13:37:02;88.07;;;82.20;;
2035;SDS011;23642;42.658;23.350;2022-10-19T13:39:41;88.50;;;82.63;;
2035;SDS011;23642;42.658;23.350;2022-10-19T13:51:39;86.80;;;81.50;;
2035;SDS011;23642;42.658;23.350;2022-10-19T13:54:22;92.50;;;86.50;;
2035;SDS011;23642;42.658;23.350;2022-10-19T13:57:03;92.37;;;86.60;;
2035;SDS011;23642;42.658;23.350;2022-10-19T13:59:44;91.80;;;85.97;;
2035;SDS011;23642;42.658;23.350;2022-10-19T14:05:50;91.37;;;85.60;;
2035;SDS011;23642;42.658;23.350;2022-10-19T14:08:35;89.87;;;84.47;;
2035;SDS011;23642;42.658;23.350;2022-10-19T14:11:30;91.03;;;85.63;;
2035;SDS011;23642;42.658;23.350;2022-10-19T14:14:06;90.30;;;84.90;;
2035;SDS011;23642;42.658;23.350;2022-10-19T14:16:47;91.80;;;86.40;;
2035;SDS011;23642;42.658;23.350;2022-10-19T14:19:23;91.53;;;86.03;;
2035;SDS011;23642;42.658;23.350;2022-10-19T14:22:16;91.17;;;85.57;;
2035;SDS011;23642;42.658;23.350;2022-10-19T14:24:45;89.03;;;83.43;;
2035;SDS011;23642;42.658;23.350;2022-10-19T14:27:17;91.57;;;86.00;;
2035;SDS011;23642;42.658;23.350;2022-10-19T14:29:48;91.87;;;86.17;;
2035;SDS011;23642;42.658;23.350;2022-10-19T14:32:21;91.43;;;85.83;;
2035;SDS011;23642;42.658;23.350;2022-10-19T14:34:52;92.40;;;86.90;;
2035;SDS011;23642;42.658;23.350;2022-10-19T14:37:30;89.00;;;83.40;;
2035;SDS011;23642;42.658;23.350;2022-10-19T14:40:01;90.90;;;85.00;;
2035;SDS011;23642;42.658;23.350;2022-10-19T14:42:34;91.53;;;85.40;;
2035;SDS011;23642;42.658;23.350;2022-10-19T14:45:07;91.13;;;84.93;;
2035;SDS011;23642;42.658;23.350;2022-10-19T14:47:58;92.00;;;86.00;;
2035;SDS011;23642;42.658;23.350;2022-10-19T14:50:44;94.43;;;88.73;;
2035;SDS011;23642;42.658;23.350;2022-10-19T14:53:31;91.27;;;85.50;;
2035;SDS011;23642;42.658;23.350;2022-10-19T14:56:07;90.37;;;84.97;;
2035;SDS011;23642;42.658;23.350;2022-10-19T14:58:45;92.50;;;86.90;;
2035;SDS011;23642;42.658;23.350;2022-10-19T15:01:16;91.30;;;85.70;;
2035;SDS011;23642;42.658;23.350;2022-10-19T15:03:45;88.73;;;82.93;;
2035;SDS011;23642;42.658;23.350;2022-10-19T15:19:25;93.40;;;87.70;;
2035;SDS011;23642;42.658;23.350;2022-10-19T15:22:19;95.07;;;88.90;;
2035;SDS011;23642;42.658;23.350;2022-10-19T15:25:32;93.70;;;87.70;;
2035;SDS011;23642;42.658;23.350;2022-10-19T15:28:20;95.37;;;89.43;;
2035;SDS011;23642;42.658;23.350;2022-10-19T15:31:11;94.20;;;87.87;;
2035;SDS011;23642;42.658;23.350;2022-10-19T15:33:58;97.37;;;90.77;;
2035;SDS011;23642;42.658;23.350;2022-10-19T15:36:30;94.37;;;88.63;;
2035;SDS011;23642;42.658;23.350;2022-10-19T15:38:58;95.70;;;89.60;;
2035;SDS011;23642;42.658;23.350;2022-10-19T15:41:31;98.23;;;91.87;;
2035;SDS011;23642;42.658;23.350;2022-10-19T15:44:05;95.13;;;89.07;;
2035;SDS011;23642;42.658;23.350;2022-10-19T15:50:49;92.85;;;86.65;;
2035;SDS011;23642;42.658;23.350;2022-10-19T15:53:20;95.07;;;88.77;;
2035;SDS011;23642;42.658;23.350;2022-10-19T15:55:48;93.27;;;87.17;;
2035;SDS011;23642;42.658;23.350;2022-10-19T15:58:19;96.23;;;89.93;;
2035;SDS011;23642;42.658;23.350;2022-10-19T16:00:46;96.83;;;90.20;;
2035;SDS011;23642;42.658;23.350;2022-10-19T16:03:15;95.30;;;89.00;;
2035;SDS011;23642;42.658;23.350;2022-10-19T16:05:53;99.13;;;92.63;;
2035;SDS011;23642;42.658;23.350;2022-10-19T16:08:23;97.30;;;91.20;;
2035;SDS011;23642;42.658;23.350;2022-10-19T16:10:50;97.33;;;90.77;;
2035;SDS011;23642;42.658;23.350;2022-10-19T16:13:19;97.73;;;91.33;;
2035;SDS011;23642;42.658;23.350;2022-10-19T16:15:47;94.93;;;88.63;;
2035;SDS011;23642;42.658;23.350;2022-10-19T16:18:14;98.57;;;92.03;;
2035;SDS011;23642;42.658;23.350;2022-10-19T16:20:41;97.90;;;91.50;;
2035;SDS011;23642;42.658;23.350;2022-10-19T16:23:12;97.50;;;91.20;;
2035;SDS011;23642;42.658;23.350;2022-10-19T16:25:39;97.60;;;91.40;;
2035;SDS011;23642;42.658;23.350;2022-10-19T16:28:05;97.53;;;90.90;;
2035;SDS011;23642;42.658;23.350;2022-10-19T16:30:32;97.93;;;91.53;;
2035;SDS011;23642;42.658;23.350;2022-10-19T16:32:59;94.60;;;88.47;;
2035;SDS011;23642;42.658;23.350;2022-10-19T16:35:26;96.77;;;90.43;;
2035;SDS011;23642;42.658;23.350;2022-10-19T16:37:52;96.70;;;90.07;;
2035;SDS011;23642;42.658;23.350;2022-10-19T16:40:21;96.00;;;89.80;;
2035;SDS011;23642;42.658;23.350;2022-10-19T16:42:54;97.20;;;90.47;;
2035;SDS011;23642;42.658;23.350;2022-10-19T16:45:23;94.70;;;88.30;;
2035;SDS011;23642;42.658;23.350;2022-10-19T16:47:50;98.13;;;91.83;;
2035;SDS011;23642;42.658;23.350;2022-10-19T16:50:18;99.00;;;92.70;;
2035;SDS011;23642;42.658;23.350;2022-10-19T16:52:50;95.37;;;89.27;;
2035;SDS011;23642;42.658;23.350;2022-10-19T16:55:30;95.70;;;89.40;;
2035;SDS011;23642;42.658;23.350;2022-10-19T16:57:57;96.80;;;90.53;;
2035;SDS011;23642;42.658;23.350;2022-10-19T17:00:24;95.67;;;89.43;;
2035;SDS011;23642;42.658;23.350;2022-10-19T17:02:51;95.80;;;89.27;;
2035;SDS011;23642;42.658;23.350;2022-10-19T17:05:18;100.23;;;93.73;;
2035;SDS011;23642;42.658;23.350;2022-10-19T17:07:45;97.03;;;90.73;;
2035;SDS011;23642;42.658;23.350;2022-10-19T17:10:13;94.70;;;88.50;;
2035;SDS011;23642;42.658;23.350;2022-10-19T17:12:44;97.17;;;90.77;;
2035;SDS011;23642;42.658;23.350;2022-10-19T17:15:11;97.23;;;90.73;;
2035;SDS011;23642;42.658;23.350;2022-10-19T17:17:38;98.13;;;91.70;;
2035;SDS011;23642;42.658;23.350;2022-10-19T17:20:10;95.90;;;89.60;;
2035;SDS011;23642;42.658;23.350;2022-10-19T17:22:39;97.43;;;91.00;;
2035;SDS011;23642;42.658;23.350;2022-10-19T17:25:09;96.07;;;89.87;;
2035;SDS011;23642;42.658;23.350;2022-10-19T17:27:36;95.53;;;89.33;;
2035;SDS011;23642;42.658;23.350;2022-10-19T17:30:27;95.87;;;89.70;;
2035;SDS011;23642;42.658;23.350;2022-10-19T17:32:54;98.43;;;92.07;;
2035;SDS011;23642;42.658;23.350;2022-10-19T17:35:21;96.20;;;89.90;;
2035;SDS011;23642;42.658;23.350;2022-10-19T17:37:51;95.60;;;89.27;;
2035;SDS011;23642;42.658;23.350;2022-10-19T17:40:22;97.53;;;91.00;;
2035;SDS011;23642;42.658;23.350;2022-10-19T17:42:49;98.87;;;92.23;;
2035;SDS011;23642;42.658;23.350;2022-10-19T17:45:15;97.27;;;90.77;;
2035;SDS011;23642;42.658;23.350;2022-10-19T17:47:45;96.00;;;89.50;;
2035;SDS011;23642;42.658;23.350;2022-10-19T17:50:12;99.67;;;93.23;;
2035;SDS011;23642;42.658;23.350;2022-10-19T17:52:51;95.17;;;88.87;;
2035;SDS011;23642;42.658;23.350;2022-10-19T17:55:18;93.70;;;87.70;;
2035;SDS011;23642;42.658;23.350;2022-10-19T17:57:45;96.93;;;90.53;;
2035;SDS011;23642;42.658;23.350;2022-10-19T18:00:21;97.97;;;91.67;;
2035;SDS011;23642;42.658;23.350;2022-10-19T18:02:50;96.83;;;90.63;;
2035;SDS011;23642;42.658;23.350;2022-10-19T18:05:17;98.03;;;91.83;;
2035;SDS011;23642;42.658;23.350;2022-10-19T18:07:44;97.70;;;91.50;;
2035;SDS011;23642;42.658;23.350;2022-10-19T18:10:14;97.60;;;91.40;;
2035;SDS011;23642;42.658;23.350;2022-10-19T18:12:40;97.73;;;90.50;;
2035;SDS011;23642;42.658;23.350;2022-10-19T18:15:12;100.17;;;93.67;;
2035;SDS011;23642;42.658;23.350;2022-10-19T18:17:39;97.30;;;90.90;;
2035;SDS011;23642;42.658;23.350;2022-10-19T18:20:08;95.50;;;89.30;;
2035;SDS011;23642;42.658;23.350;2022-10-19T18:22:36;96.70;;;90.20;;
2035;SDS011;23642;42.658;23.350;2022-10-19T18:25:03;94.73;;;88.57;;
2035;SDS011;23642;42.658;23.350;2022-10-19T18:27:30;97.37;;;91.17;;
2035;SDS011;23642;42.658;23.350;2022-10-19T18:29:59;99.00;;;92.50;;
2035;SDS011;23642;42.658;23.350;2022-10-19T18:32:26;96.40;;;90.20;;
2035;SDS011;23642;42.658;23.350;2022-10-19T18:34:55;99.83;;;93.13;;
2035;SDS011;23642;42.658;23.350;2022-10-19T18:37:23;99.57;;;92.90;;
2035;SDS011;23642;42.658;23.350;2022-10-19T18:39:50;98.10;;;91.60;;
2035;SDS011;23642;42.658;23.350;2022-10-19T18:42:17;97.13;;;90.73;;
2035;SDS011;23642;42.658;23.350;2022-10-19T18:44:43;98.50;;;92.00;;
2035;SDS011;23642;42.658;23.350;2022-10-19T18:47:11;99.80;;;93.17;;
2035;SDS011;23642;42.658;23.350;2022-10-19T18:49:38;97.77;;;91.17;;
2035;SDS011;23642;42.658;23.350;2022-10-19T18:52:04;96.30;;;90.10;;
2035;SDS011;23642;42.658;23.350;2022-10-19T18:54:33;96.97;;;90.73;;
2035;SDS011;23642;42.658;23.350;2022-10-19T18:56:59;97.10;;;90.80;;
2035;SDS011;23642;42.658;23.350;2022-10-19T18:59:26;97.70;;;91.30;;
2035;SDS011;23642;42.658;23.350;2022-10-19T19:01:53;100.00;;;93.50;;
2035;SDS011;23642;42.658;23.350;2022-10-19T19:04:20;99.77;;;93.27;;
2035;SDS011;23642;42.658;23.350;2022-10-19T19:06:47;98.23;;;91.73;;
2035;SDS011;23642;42.658;23.350;2022-10-19T19:09:17;100.53;;;93.43;;
2035;SDS011;23642;42.658;23.350;2022-10-19T19:11:46;98.10;;;91.23;;
2035;SDS011;23642;42.658;23.350;2022-10-19T19:14:13;101.00;;;94.30;;
2035;SDS011;23642;42.658;23.350;2022-10-19T19:16:44;98.87;;;92.30;;
2035;SDS011;23642;42.658;23.350;2022-10-19T19:19:15;101.13;;;94.70;;
2035;SDS011;23642;42.658;23.350;2022-10-19T19:21:43;100.57;;;93.83;;
2035;SDS011;23642;42.658;23.350;2022-10-19T19:24:12;100.60;;;93.90;;
2035;SDS011;23642;42.658;23.350;2022-10-19T19:26:42;100.57;;;94.07;;
2035;SDS011;23642;42.658;23.350;2022-10-19T19:29:12;100.70;;;93.97;;
2035;SDS011;23642;42.658;23.350;2022-10-19T19:31:40;99.13;;;92.60;;
2035;SDS011;23642;42.658;23.350;2022-10-19T19:34:06;99.90;;;93.20;;
2035;SDS011;23642;42.658;23.350;2022-10-19T19:36:34;98.83;;;92.47;;
2035;SDS011;23642;42.658;23.350;2022-10-19T19:39:02;100.97;;;94.57;;
2035;SDS011;23642;42.658;23.350;2022-10-19T19:41:29;98.63;;;92.10;;
2035;SDS011;23642;42.658;23.350;2022-10-19T19:43:58;99.60;;;93.00;;
2035;SDS011;23642;42.658;23.350;2022-10-19T19:46:26;99.97;;;93.30;;
2035;SDS011;23642;42.658;23.350;2022-10-19T19:48:56;101.07;;;94.67;;
2035;SDS011;23642;42.658;23.350;2022-10-19T19:51:25;101.27;;;94.17;;
2035;SDS011;23642;42.658;23.350;2022-10-19T19:53:55;102.77;;;95.50;;
2035;SDS011;23642;42.658;23.350;2022-10-19T19:56:22;99.30;;;92.90;;
2035;SDS011;23642;42.658;23.350;2022-10-19T19:58:54;101.67;;;94.97;;
2035;SDS011;23642;42.658;23.350;2022-10-19T20:01:22;101.50;;;94.40;;
2035;SDS011;23642;42.658;23.350;2022-10-19T20:03:50;102.63;;;95.93;;
2035;SDS011;23642;42.658;23.350;2022-10-19T20:06:17;103.50;;;96.47;;
2035;SDS011;23642;42.658;23.350;2022-10-19T20:08:45;101.87;;;95.20;;
2035;SDS011;23642;42.658;23.350;2022-10-19T20:11:12;102.63;;;95.40;;
2035;SDS011;23642;42.658;23.350;2022-10-19T20:13:44;101.90;;;95.23;;
2035;SDS011;23642;42.658;23.350;2022-10-19T20:16:12;104.57;;;97.87;;
2035;SDS011;23642;42.658;23.350;2022-10-19T20:18:40;103.27;;;96.50;;
2035;SDS011;23642;42.658;23.350;2022-10-19T20:21:11;106.17;;;99.40;;
2035;SDS011;23642;42.658;23.350;2022-10-19T20:23:43;105.03;;;98.10;;
2035;SDS011;23642;42.658;23.350;2022-10-19T20:26:13;105.67;;;98.43;;
2035;SDS011;23642;42.658;23.350;2022-10-19T20:28:40;105.07;;;98.17;;
2035;SDS011;23642;42.658;23.350;2022-10-19T20:31:07;104.73;;;97.83;;
2035;SDS011;23642;42.658;23.350;2022-10-19T20:33:35;103.93;;;96.77;;
2035;SDS011;23642;42.658;23.350;2022-10-19T20:36:04;107.00;;;99.80;;
2035;SDS011;23642;42.658;23.350;2022-10-19T20:38:34;102.67;;;95.87;;
2035;SDS011;23642;42.658;23.350;2022-10-19T20:41:02;107.03;;;99.60;;
2035;SDS011;23642;42.658;23.350;2022-10-19T20:43:31;108.60;;;100.73;;
2035;SDS011;23642;42.658;23.350;2022-10-19T20:46:03;108.30;;;101.13;;
2035;SDS011;23642;42.658;23.350;2022-10-19T20:48:31;105.10;;;98.20;;
2035;SDS011;23642;42.658;23.350;2022-10-19T20:51:08;108.70;;;101.40;;